Time;durP1;ratioP1;P1;durP2;ratioP2;P2;SDS_P1;SDS_P2;PMS_P1;PMS_P2;Temp;Humidity;BMP_temperature;BMP_pressure;BME280_temperature;BME280_humidity;BME280_pressure;Samples;Min_cycle;Max_cycle;Signal;HPM_P1;HPM_P2
2022/05/18 00:01:51;;;;;;;0.90;0.80;;;19.60;99.90;;;;;;5012653;28;20218;-71
2022/05/18 00:04:17;;;;;;;0.80;0.60;;;19.60;99.90;;;;;;5012402;28;20173;-72
2022/05/18 00:06:42;;;;;;;1.07;0.50;;;19.50;99.90;;;;;;5012405;28;20426;-71
2022/05/18 00:09:07;;;;;;;1.30;0.80;;;19.50;99.90;;;;;;5012301;28;20198;-71
2022/05/18 00:11:33;;;;;;;1.23;0.73;;;19.50;99.90;;;;;;5012708;28;20207;-72
2022/05/18 00:13:59;;;;;;;0.90;0.63;;;19.40;99.90;;;;;;5012307;28;20634;-72
2022/05/18 00:16:26;;;;;;;0.87;0.60;;;19.40;99.90;;;;;;5012350;28;20172;-72
2022/05/18 00:18:54;;;;;;;1.10;1.00;;;19.30;99.90;;;;;;5012310;28;20739;-72
2022/05/18 00:21:20;;;;;;;1.00;0.70;;;19.30;99.90;;;;;;5011107;28;20804;-72
2022/05/18 00:23:45;;;;;;;0.97;0.63;;;19.30;99.90;;;;;;5012288;28;20408;-72
2022/05/18 00:26:11;;;;;;;0.80;0.60;;;19.20;99.90;;;;;;5012125;28;20178;-72
2022/05/18 00:28:36;;;;;;;0.80;0.60;;;19.20;99.90;;;;;;5010862;28;20200;-72
2022/05/18 00:31:03;;;;;;;0.97;0.87;;;19.20;99.90;;;;;;5012193;28;20214;-71
2022/05/18 00:33:29;;;;;;;1.10;0.70;;;19.20;99.90;;;;;;5010838;28;20294;-71
2022/05/18 00:35:57;;;;;;;0.80;0.70;;;19.10;99.90;;;;;;5012137;28;20534;-72
2022/05/18 00:38:22;;;;;;;0.93;0.73;;;19.10;99.90;;;;;;5012168;28;20418;-72
2022/05/18 00:40:51;;;;;;;1.00;0.80;;;19.10;99.90;;;;;;5012088;28;20408;-72
2022/05/18 00:43:18;;;;;;;0.90;0.70;;;19.10;99.90;;;;;;5012125;28;20576;-72
2022/05/18 00:45:44;;;;;;;0.80;0.70;;;19.10;99.90;;;;;;5010684;28;20415;-72
2022/05/18 00:48:10;;;;;;;0.93;0.70;;;19.00;99.90;;;;;;5012144;28;20473;-72
2022/05/18 00:50:38;;;;;;;0.90;0.70;;;19.00;99.90;;;;;;5012034;28;20408;-72
2022/05/18 00:53:26;;;;;;;1.10;0.70;;;19.00;99.90;;;;;;5012047;28;20960;-72
2022/05/18 00:56:01;;;;;;;1.00;0.70;;;18.90;99.90;;;;;;5011840;28;20502;-72
2022/05/18 00:58:47;;;;;;;0.80;0.50;;;18.90;99.90;;;;;;5012051;28;20418;-73
2022/05/18 01:01:13;;;;;;;0.80;0.60;;;18.90;99.90;;;;;;5012346;28;20407;-72
2022/05/18 01:03:49;;;;;;;0.90;0.60;;;18.80;99.90;;;;;;5011957;28;20414;-72
2022/05/18 01:06:30;;;;;;;1.10;0.90;;;18.80;99.90;;;;;;5010521;28;20450;-72
2022/05/18 01:09:17;;;;;;;0.90;0.70;;;18.80;99.90;;;;;;5012856;28;20434;-72
2022/05/18 01:11:43;;;;;;;0.90;0.60;;;18.70;99.90;;;;;;5014407;28;20421;-71
2022/05/18 01:14:19;;;;;;;0.80;0.60;;;18.70;99.90;;;;;;5015811;28;20924;-72
2022/05/18 01:16:45;;;;;;;1.10;0.70;;;18.60;99.90;;;;;;5015547;28;20578;-72
2022/05/18 01:19:23;;;;;;;0.80;0.60;;;18.60;99.90;;;;;;5015474;28;20940;-74
2022/05/18 01:22:23;;;;;;;0.90;0.70;;;18.60;99.90;;;;;;5015575;28;20407;-74
2022/05/18 01:25:05;;;;;;;0.80;0.60;;;18.50;99.90;;;;;;5015434;28;20407;-74
2022/05/18 01:27:31;;;;;;;1.43;0.93;;;18.50;99.90;;;;;;5015454;28;20868;-74
2022/05/18 01:29:57;;;;;;;0.80;0.70;;;18.40;99.90;;;;;;5015379;28;20474;-74
2022/05/18 01:32:23;;;;;;;0.90;0.70;;;18.40;99.90;;;;;;5015323;28;20283;-75
2022/05/18 01:34:49;;;;;;;0.80;0.50;;;18.30;99.90;;;;;;5015307;28;20864;-74
2022/05/18 01:37:15;;;;;;;0.80;0.50;;;18.30;99.90;;;;;;5015270;28;20176;-74
2022/05/18 01:39:51;;;;;;;0.80;0.60;;;18.30;99.90;;;;;;5015381;28;20191;-75
2022/05/18 01:42:24;;;;;;;0.90;0.80;;;18.20;99.90;;;;;;5015202;28;20407;-74
2022/05/18 01:44:50;;;;;;;0.80;0.60;;;18.20;99.90;;;;;;5013752;28;20894;-75
2022/05/18 01:47:15;;;;;;;1.23;0.80;;;18.10;99.90;;;;;;5014986;28;20447;-74
2022/05/18 01:49:42;;;;;;;0.80;0.60;;;18.10;99.90;;;;;;5013676;28;20203;-74
2022/05/18 01:52:10;;;;;;;0.90;0.70;;;18.10;99.90;;;;;;5014963;28;20279;-74
2022/05/18 01:54:38;;;;;;;0.90;0.70;;;18.00;99.90;;;;;;5014939;28;20426;-74
2022/05/18 01:57:04;;;;;;;1.00;0.77;;;18.00;99.90;;;;;;5014782;28;20403;-74
2022/05/18 01:59:29;;;;;;;1.00;0.90;;;17.90;99.90;;;;;;5014846;28;20435;-74
2022/05/18 02:01:55;;;;;;;0.90;0.70;;;17.90;99.90;;;;;;5014854;28;20411;-74
2022/05/18 02:04:20;;;;;;;1.00;0.70;;;17.90;99.90;;;;;;5015160;28;20172;-75
2022/05/18 02:06:46;;;;;;;1.27;1.17;;;17.80;99.90;;;;;;5014640;28;20180;-74
2022/05/18 02:09:16;;;;;;;1.00;0.77;;;17.80;99.90;;;;;;5014753;28;20192;-74
2022/05/18 02:11:42;;;;;;;1.23;0.83;;;17.70;99.90;;;;;;5014747;28;20252;-74
2022/05/18 02:14:09;;;;;;;1.10;1.00;;;17.70;99.90;;;;;;5014745;28;20411;-75
2022/05/18 02:16:36;;;;;;;4.80;0.70;;;17.60;99.90;;;;;;5014491;28;20775;-74
2022/05/18 02:19:02;;;;;;;1.27;1.00;;;17.60;99.90;;;;;;5013163;28;20459;-75
2022/05/18 02:21:27;;;;;;;1.57;1.40;;;17.60;99.90;;;;;;5013220;28;20537;-74
2022/05/18 02:23:53;;;;;;;4.97;1.33;;;17.50;99.90;;;;;;5014619;28;20271;-74
2022/05/18 02:26:19;;;;;;;0.90;0.73;;;17.50;99.90;;;;;;5014260;28;20202;-74
2022/05/18 02:28:45;;;;;;;0.90;0.70;;;17.50;99.90;;;;;;5014102;28;20494;-74
2022/05/18 02:31:12;;;;;;;0.80;0.77;;;17.40;99.90;;;;;;5013943;28;20411;-75
2022/05/18 02:33:38;;;;;;;1.03;0.80;;;17.40;99.90;;;;;;5012769;28;20200;-74
2022/05/18 02:36:06;;;;;;;0.80;0.50;;;17.40;99.90;;;;;;5012857;28;20423;-75
2022/05/18 02:38:32;;;;;;;0.90;0.70;;;17.30;99.90;;;;;;5013951;28;20461;-74
2022/05/18 02:40:58;;;;;;;1.33;0.70;;;17.30;99.90;;;;;;5012894;28;20418;-74
2022/05/18 02:43:25;;;;;;;4.00;0.83;;;17.30;99.90;;;;;;5013996;28;20210;-74
2022/05/18 02:46:01;;;;;;;0.80;0.57;;;17.20;99.90;;;;;;5013909;28;20415;-75
2022/05/18 02:48:26;;;;;;;0.80;0.60;;;17.20;99.90;;;;;;5013953;28;20435;-72
2022/05/18 02:50:52;;;;;;;0.90;0.70;;;17.20;99.90;;;;;;5013886;28;20414;-72
2022/05/18 02:53:17;;;;;;;0.80;0.60;;;17.20;99.90;;;;;;5013705;28;20216;-73
2022/05/18 02:58:27;;;;;;;1.10;0.90;;;17.10;99.90;;;;;;5014030;28;20203;-72
2022/05/18 03:00:52;;;;;;;1.10;0.90;;;17.10;99.90;;;;;;5013790;28;20415;-72
2022/05/18 03:03:18;;;;;;;0.90;0.70;;;17.10;99.90;;;;;;5013656;28;20283;-73
2022/05/18 03:05:43;;;;;;;2.07;0.93;;;17.00;99.90;;;;;;5013370;28;20172;-73
2022/05/18 03:08:09;;;;;;;0.80;0.60;;;17.00;99.90;;;;;;5013539;28;20172;-73
2022/05/18 03:10:36;;;;;;;0.80;0.60;;;17.00;99.90;;;;;;5013618;28;20223;-73
2022/05/18 03:13:01;;;;;;;0.80;0.50;;;17.00;99.90;;;;;;5012232;28;20203;-73
2022/05/18 03:15:27;;;;;;;0.80;0.60;;;17.00;99.90;;;;;;5013308;28;20411;-72
2022/05/18 03:17:53;;;;;;;1.47;1.13;;;17.00;99.90;;;;;;5012033;28;20192;-73
2022/05/18 03:25:47;;;;;;;1.90;1.07;;;16.90;99.90;;;;;;5013068;28;20763;-73
2022/05/18 03:28:12;;;;;;;0.90;0.70;;;16.90;99.90;;;;;;5011837;28;20415;-72
2022/05/18 03:30:38;;;;;;;1.20;1.10;;;16.90;99.90;;;;;;5013062;28;20183;-73
2022/05/18 03:33:04;;;;;;;0.90;0.80;;;16.90;99.90;;;;;;5012731;28;20534;-73
2022/05/18 03:35:29;;;;;;;1.00;0.60;;;16.90;99.90;;;;;;5012765;28;20541;-73
2022/05/18 03:37:55;;;;;;;1.10;0.67;;;16.90;99.90;;;;;;5013146;28;20641;-73
2022/05/18 03:40:20;;;;;;;0.80;0.60;;;16.90;99.90;;;;;;5011516;28;20873;-73
2022/05/18 03:42:46;;;;;;;1.00;0.80;;;16.90;99.90;;;;;;5011723;28;20214;-73
2022/05/18 03:45:11;;;;;;;0.80;0.50;;;16.90;99.90;;;;;;5012608;28;20184;-73
2022/05/18 03:47:37;;;;;;;0.80;0.53;;;16.90;99.90;;;;;;5012877;28;20676;-73
2022/05/18 03:50:03;;;;;;;0.80;0.50;;;16.90;99.90;;;;;;5012650;28;20192;-72
2022/05/18 03:52:29;;;;;;;2.23;1.27;;;17.00;99.90;;;;;;5012755;28;20220;-73
2022/05/18 03:54:54;;;;;;;1.23;1.13;;;17.00;99.90;;;;;;5011321;28;20427;-73
2022/05/18 03:57:20;;;;;;;0.90;0.80;;;17.00;99.90;;;;;;5012690;28;20507;-72
2022/05/18 03:59:45;;;;;;;1.00;0.90;;;17.00;99.90;;;;;;5012588;28;20180;-72
2022/05/18 04:02:11;;;;;;;0.90;0.80;;;17.00;99.90;;;;;;5011364;28;20173;-73
2022/05/18 04:04:36;;;;;;;1.63;1.00;;;17.00;99.90;;;;;;5012584;28;20171;-74
2022/05/18 04:07:02;;;;;;;0.90;0.77;;;17.00;99.90;;;;;;5012332;28;20168;-74
2022/05/18 04:09:28;;;;;;;1.03;0.90;;;17.00;99.90;;;;;;5012559;28;20242;-73
2022/05/18 04:11:53;;;;;;;1.03;0.93;;;17.00;99.90;;;;;;5011097;28;20250;-73
2022/05/18 04:14:19;;;;;;;1.30;1.20;;;17.00;99.90;;;;;;5012479;28;20171;-72
2022/05/18 04:16:48;;;;;;;1.00;0.80;;;17.10;99.90;;;;;;5011098;28;20633;-72
2022/05/18 04:19:15;;;;;;;1.13;0.90;;;17.10;99.90;;;;;;5012320;28;20196;-72
2022/05/18 04:21:41;;;;;;;2.00;1.67;;;17.10;99.90;;;;;;5012354;28;20403;-73
2022/05/18 04:24:06;;;;;;;1.00;0.90;;;17.20;99.90;;;;;;5012399;28;20458;-73
2022/05/18 04:26:32;;;;;;;0.90;0.70;;;17.20;99.90;;;;;;5010789;28;20173;-72
2022/05/18 04:28:57;;;;;;;1.63;1.47;;;17.30;99.90;;;;;;5012475;28;20254;-73
2022/05/18 04:31:23;;;;;;;1.20;1.00;;;17.30;99.90;;;;;;5011352;28;20176;-73
2022/05/18 04:33:48;;;;;;;1.80;1.10;;;17.30;99.90;;;;;;5010818;28;20704;-73
2022/05/18 04:36:14;;;;;;;1.60;1.30;;;17.40;99.90;;;;;;5012059;28;20175;-73
2022/05/18 04:38:40;;;;;;;0.90;0.80;;;17.40;99.90;;;;;;5012236;28;20212;-73
2022/05/18 04:41:05;;;;;;;1.20;0.80;;;17.50;99.90;;;;;;5012156;28;20584;-73
2022/05/18 04:43:32;;;;;;;1.30;1.13;;;17.50;99.90;;;;;;5012387;28;20176;-72
2022/05/18 04:45:58;;;;;;;1.00;0.90;;;17.50;99.90;;;;;;5016111;28;20171;-73
2022/05/18 04:48:25;;;;;;;1.07;0.97;;;17.60;99.90;;;;;;5016219;28;20403;-73
2022/05/18 04:50:51;;;;;;;2.23;1.87;;;17.60;99.90;;;;;;5016169;28;20168;-72
2022/05/18 04:53:18;;;;;;;0.80;0.60;;;17.70;99.90;;;;;;5016060;28;20538;-72
2022/05/18 04:55:44;;;;;;;1.30;1.20;;;17.70;99.90;;;;;;5015879;28;20468;-75
2022/05/18 04:58:10;;;;;;;0.80;0.63;;;17.80;99.90;;;;;;5015827;28;20968;-71
2022/05/18 05:00:37;;;;;;;1.37;1.17;;;17.80;99.90;;;;;;5014751;28;20498;-72
2022/05/18 05:03:03;;;;;;;0.90;0.70;;;17.90;99.90;;;;;;5014661;28;20206;-72
2022/05/18 05:05:29;;;;;;;1.03;0.93;;;18.00;99.90;;;;;;5015703;28;20486;-73
2022/05/18 05:07:55;;;;;;;1.10;1.00;;;18.00;99.90;;;;;;5015909;28;20442;-73
2022/05/18 05:10:21;;;;;;;0.80;0.70;;;18.10;99.90;;;;;;5014368;28;20477;-73
2022/05/18 05:12:47;;;;;;;0.87;0.73;;;18.20;99.90;;;;;;5015599;28;20517;-73
2022/05/18 05:15:14;;;;;;;2.47;1.17;;;18.30;99.90;;;;;;5015412;28;20490;-72
2022/05/18 05:17:40;;;;;;;4.20;2.60;;;18.30;99.90;;;;;;5015551;28;20427;-72
2022/05/18 05:20:07;;;;;;;1.00;0.80;;;18.40;99.90;;;;;;5015533;28;20646;-72
2022/05/18 05:22:32;;;;;;;4.87;1.13;;;18.50;99.90;;;;;;5015557;28;20836;-75
2022/05/18 05:24:58;;;;;;;1.93;1.73;;;18.60;99.90;;;;;;5015523;28;20415;-72
2022/05/18 05:27:24;;;;;;;2.30;1.43;;;18.70;99.90;;;;;;5015341;28;20176;-72
2022/05/18 05:29:49;;;;;;;4.47;1.00;;;18.80;99.90;;;;;;5015463;28;20191;-73
2022/05/18 05:32:15;;;;;;;0.87;0.70;;;18.80;99.90;;;;;;5014192;28;20196;-72
2022/05/18 05:34:41;;;;;;;1.37;1.03;;;18.90;99.90;;;;;;5013977;28;20245;-73
2022/05/18 05:37:07;;;;;;;4.80;1.70;;;19.00;99.90;;;;;;5013945;28;20172;-73
2022/05/18 05:39:32;;;;;;;1.53;1.00;;;19.20;99.90;;;;;;5015133;28;21084;-72
2022/05/18 05:41:58;;;;;;;1.63;1.53;;;19.30;99.90;;;;;;5015243;28;20177;-73
2022/05/18 05:44:24;;;;;;;1.10;0.93;;;19.40;99.90;;;;;;5015082;28;20658;-72
2022/05/18 05:46:50;;;;;;;1.87;1.77;;;19.50;99.90;;;;;;5014920;28;20415;-72
2022/05/18 05:49:16;;;;;;;1.43;1.17;;;19.70;99.90;;;;;;5013715;28;20207;-73
2022/05/18 05:51:41;;;;;;;1.30;1.17;;;19.90;99.90;;;;;;5013535;28;20411;-73
2022/05/18 05:54:08;;;;;;;2.93;1.23;;;20.10;99.90;;;;;;5014716;28;20169;-72
2022/05/18 05:56:33;;;;;;;3.67;1.50;;;20.30;99.90;;;;;;5014496;28;20164;-72
2022/05/18 05:58:59;;;;;;;0.93;0.83;;;20.50;99.90;;;;;;5014887;28;20423;-72
2022/05/18 06:01:24;;;;;;;1.23;1.13;;;20.80;99.90;;;;;;5014873;28;20200;-73
2022/05/18 06:03:50;;;;;;;1.10;1.00;;;21.10;99.90;;;;;;5014784;28;20169;-73
2022/05/18 06:06:18;;;;;;;1.30;1.20;;;21.40;99.90;;;;;;5014612;28;20198;-73
2022/05/18 06:08:43;;;;;;;1.10;1.00;;;21.70;99.90;;;;;;5014413;28;20216;-73
2022/05/18 06:11:10;;;;;;;1.90;1.40;;;22.00;99.90;;;;;;5013396;28;20834;-72
2022/05/18 06:13:35;;;;;;;2.40;1.40;;;22.30;99.90;;;;;;5013262;28;20270;-73
2022/05/18 06:16:03;;;;;;;1.10;1.00;;;22.60;99.90;;;;;;5014324;28;20904;-73
2022/05/18 06:18:30;;;;;;;1.47;1.10;;;22.80;99.90;;;;;;5014378;28;20231;-73
2022/05/18 06:20:56;;;;;;;1.17;0.97;;;23.10;99.90;;;;;;5014440;28;20905;-72
2022/05/18 06:23:22;;;;;;;1.60;1.50;;;23.40;99.90;;;;;;5014453;28;20494;-73
2022/05/18 06:25:48;;;;;;;0.90;0.80;;;23.60;99.90;;;;;;5014239;28;20494;-73
2022/05/18 06:28:13;;;;;;;1.00;0.80;;;23.80;99.90;;;;;;5014348;28;20698;-73
2022/05/18 06:30:40;;;;;;;2.50;1.17;;;24.00;99.90;;;;;;5013113;28;20229;-74
2022/05/18 06:33:05;;;;;;;0.90;0.80;;;24.30;99.90;;;;;;5014120;28;20725;-73
2022/05/18 06:35:31;;;;;;;1.43;1.33;;;24.60;99.90;;;;;;5014062;28;20418;-73
2022/05/18 06:37:57;;;;;;;1.03;0.93;;;24.90;99.90;;;;;;5014195;28;20532;-73
2022/05/18 06:41:21;;;;;;;2.20;2.00;;;25.20;99.90;;;;;;5014102;28;20465;-73
2022/05/18 06:43:08;;;;;;;1.00;0.80;;;25.60;99.90;;;;;;5013925;28;20184;-73
2022/05/18 06:45:34;;;;;;;1.10;1.00;;;26.00;99.90;;;;;;5013859;28;20831;-73
2022/05/18 06:48:00;;;;;;;1.93;0.90;;;26.40;99.90;;;;;;5013424;28;20176;-72
2022/05/18 06:50:26;;;;;;;3.73;1.60;;;26.90;99.90;;;;;;5013892;28;20220;-72
2022/05/18 06:52:52;;;;;;;1.87;1.10;;;27.40;99.90;;;;;;5013399;28;20553;-73
2022/05/18 06:55:17;;;;;;;2.70;1.30;;;27.90;99.90;;;;;;5013811;28;20171;-74
2022/05/18 06:57:43;;;;;;;1.47;1.00;;;28.30;99.90;;;;;;5013655;28;20208;-74
2022/05/18 07:00:09;;;;;;;1.93;1.40;;;28.80;99.90;;;;;;5012441;28;20199;-74
2022/05/18 07:02:34;;;;;;;2.60;2.40;;;29.20;99.90;;;;;;5013715;28;20255;-73
2022/05/18 07:05:00;;;;;;;1.60;0.97;;;29.60;99.90;;;;;;5013627;28;20947;-74
2022/05/18 07:07:26;;;;;;;1.53;1.40;;;30.00;99.90;;;;;;5012854;28;20180;-74
2022/05/18 07:09:51;;;;;;;1.70;1.07;;;30.30;99.90;;;;;;5013225;28;20231;-74
2022/05/18 07:12:17;;;;;;;1.53;1.20;;;30.80;98.40;;;;;;5013238;28;20203;-74
2022/05/18 07:14:43;;;;;;;1.63;1.53;;;31.40;95.90;;;;;;5012217;28;20172;-74
2022/05/18 07:17:08;;;;;;;1.60;1.27;;;32.10;94.40;;;;;;5013144;28;20800;-74
2022/05/18 07:19:34;;;;;;;3.90;1.40;;;32.90;92.30;;;;;;5013338;28;20244;-74
2022/05/18 07:21:59;;;;;;;1.80;1.60;;;33.60;89.10;;;;;;5013354;28;20199;-75
2022/05/18 07:24:25;;;;;;;1.20;1.10;;;34.50;80.60;;;;;;5013428;28;20591;-75
2022/05/18 07:26:50;;;;;;;1.37;1.27;;;35.30;73.40;;;;;;5013239;28;20573;-75
2022/05/18 07:29:16;;;;;;;1.47;1.30;;;36.00;68.20;;;;;;5013256;28;20534;-74
2022/05/18 07:34:25;;;;;;;1.43;1.33;;;37.80;60.20;;;;;;5013177;28;20579;-74
2022/05/18 07:36:53;;;;;;;1.50;1.40;;;38.80;57.10;;;;;;5012934;28;20415;-74
2022/05/18 07:39:19;;;;;;;1.50;1.40;;;39.20;55.10;;;;;;5011850;28;20223;-75
2022/05/18 07:41:45;;;;;;;1.27;1.10;;;39.00;53.60;;;;;;5013240;28;20443;-75
2022/05/18 07:44:11;;;;;;;1.77;1.63;;;38.70;52.60;;;;;;5013109;28;20173;-74
2022/05/18 07:46:37;;;;;;;1.50;1.40;;;39.00;51.70;;;;;;5012799;28;20176;-75
2022/05/18 07:49:03;;;;;;;1.30;1.20;;;39.90;50.80;;;;;;5012839;28;20427;-75
2022/05/18 07:51:28;;;;;;;1.50;1.40;;;40.80;49.70;;;;;;5011729;28;20179;-75
2022/05/18 07:53:54;;;;;;;1.20;1.10;;;41.90;48.70;;;;;;5012704;28;20450;-74
2022/05/18 07:56:20;;;;;;;1.43;1.33;;;42.90;46.30;;;;;;5012673;28;20196;-75
2022/05/18 07:58:45;;;;;;;1.80;1.70;;;43.80;44.90;;;;;;5011399;28;20739;-75
2022/05/18 08:01:11;;;;;;;1.47;1.37;;;44.60;43.50;;;;;;5012921;28;20692;-75
2022/05/18 08:03:37;;;;;;;1.50;1.40;;;45.40;42.00;;;;;;5012374;28;20180;-75
2022/05/18 08:06:03;;;;;;;1.30;1.20;;;46.20;40.40;;;;;;5012152;28;20540;-74
2022/05/18 08:08:29;;;;;;;1.60;1.50;;;46.80;38.80;;;;;;5012385;28;20188;-75
2022/05/18 08:16:25;;;;;;;1.30;1.20;;;48.50;35.40;;;;;;5012438;28;20411;-74
2022/05/18 08:18:50;;;;;;;1.60;1.50;;;49.10;34.50;;;;;;5011025;28;21153;-75
2022/05/18 08:21:17;;;;;;;2.00;1.90;;;49.60;33.60;;;;;;5012512;28;20389;-75
2022/05/18 08:23:43;;;;;;;1.50;1.40;;;50.20;33.10;;;;;;5012275;28;20160;-75
2022/05/18 08:26:09;;;;;;;1.50;1.40;;;50.60;32.20;;;;;;5010910;28;20456;-74
2022/05/18 08:28:36;;;;;;;1.80;1.70;;;51.20;31.90;;;;;;5011783;28;20895;-73
2022/05/18 08:31:01;;;;;;;1.53;1.43;;;51.60;30.80;;;;;;5012371;28;20781;-75
2022/05/18 08:33:31;;;;;;;2.07;1.97;;;52.20;30.80;;;;;;5012189;28;20500;-76
2022/05/18 08:35:56;;;;;;;2.30;2.20;;;52.80;30.60;;;;;;5012123;28;20156;-76
2022/05/18 08:38:22;;;;;;;2.00;1.80;;;53.40;30.00;;;;;;5012019;28;20473;-76
2022/05/18 08:40:49;;;;;;;1.93;1.70;;;54.00;29.60;;;;;;5012158;28;20649;-76
2022/05/18 08:43:28;;;;;;;1.63;1.53;;;54.60;29.60;;;;;;5012115;28;20168;-76
2022/05/18 08:46:17;;;;;;;1.70;1.60;;;55.30;29.00;;;;;;5012008;28;20374;-76
2022/05/18 08:48:57;;;;;;;1.90;1.80;;;55.80;28.50;;;;;;5012154;28;20565;-76
2022/05/18 08:51:52;;;;;;;1.67;1.57;;;56.30;27.70;;;;;;5012222;28;20418;-76
2022/05/18 08:55:06;;;;;;;2.03;1.93;;;56.50;27.40;;;;;;5012001;28;20410;-74
2022/05/18 08:57:40;;;;;;;2.00;1.90;;;56.90;27.00;;;;;;4966453;28;20385;-74
2022/05/18 09:00:48;;;;;;;2.07;1.97;;;57.20;26.90;;;;;;5011696;28;20427;-73
2022/05/18 09:03:24;;;;;;;2.30;2.10;;;57.50;26.40;;;;;;5011628;28;20747;-74
2022/05/18 09:05:59;;;;;;;2.33;2.23;;;57.80;26.40;;;;;;5011517;28;20498;-75
2022/05/18 09:08:31;;;;;;;2.33;2.13;;;58.10;26.30;;;;;;5012014;28;21113;-75
2022/05/18 09:11:05;;;;;;;2.40;2.30;;;58.40;25.80;;;;;;5011886;28;20953;-75
2022/05/18 09:13:31;;;;;;;2.53;2.43;;;58.60;25.80;;;;;;5011916;28;20450;-75
2022/05/18 09:16:23;;;;;;;2.40;2.30;;;58.90;25.30;;;;;;5011662;28;20386;-74
2022/05/18 09:19:27;;;;;;;3.40;3.20;;;59.10;24.90;;;;;;5011591;28;20533;-74
2022/05/18 09:22:17;;;;;;;2.90;2.80;;;59.30;25.00;;;;;;5011883;28;20373;-74
2022/05/18 09:24:49;;;;;;;2.80;2.60;;;59.90;25.20;;;;;;5011884;28;20765;-74
2022/05/18 09:27:24;;;;;;;3.00;2.90;;;60.40;25.20;;;;;;5011585;28;21011;-74
2022/05/18 09:30:11;;;;;;;3.23;3.13;;;60.80;25.30;;;;;;5012414;28;20425;-74
2022/05/18 09:32:45;;;;;;;3.30;3.00;;;61.10;24.40;;;;;;5015297;28;20449;-74
2022/05/18 09:35:16;;;;;;;3.30;3.10;;;61.40;24.40;;;;;;5015268;28;20390;-74
2022/05/18 09:37:55;;;;;;;3.30;3.20;;;61.60;24.00;;;;;;5015093;28;20912;-74
2022/05/18 09:40:32;;;;;;;3.10;3.00;;;61.60;23.60;;;;;;5015103;28;20568;-74
2022/05/18 09:43:06;;;;;;;3.10;2.90;;;61.60;23.50;;;;;;5015286;28;20398;-74
2022/05/18 09:45:36;;;;;;;3.90;3.50;;;61.60;23.40;;;;;;5015014;28;20796;-74
2022/05/18 09:48:09;;;;;;;3.13;3.00;;;61.80;23.40;;;;;;5015197;28;20401;-73
2022/05/18 09:50:37;;;;;;;3.80;3.70;;;61.70;23.20;;;;;;5015025;28;20413;-74
2022/05/18 09:53:03;;;;;;;2.93;2.83;;;61.90;23.00;;;;;;5015162;28;20406;-74
2022/05/18 09:55:29;;;;;;;2.90;2.80;;;61.80;23.10;;;;;;5014929;28;20409;-74
2022/05/18 09:58:03;;;;;;;3.10;3.00;;;61.80;23.10;;;;;;5014360;28;20214;-74
2022/05/18 10:00:34;;;;;;;3.30;3.20;;;61.60;22.60;;;;;;5014210;28;20569;-74
2022/05/18 10:08:52;;;;;;;3.60;3.50;;;62.70;22.70;;;;;;5014821;28;20417;-74
2022/05/18 10:11:22;;;;;;;3.40;3.30;;;62.90;22.30;;;;;;5014567;28;20777;-74
2022/05/18 10:14:11;;;;;;;3.47;3.37;;;62.90;22.50;;;;;;5013477;28;20431;-74
2022/05/18 10:16:43;;;;;;;4.03;3.90;;;63.20;22.80;;;;;;5013234;28;20446;-74
2022/05/18 10:19:21;;;;;;;4.37;4.27;;;63.50;23.00;;;;;;5014307;28;20450;-74
2022/05/18 10:22:01;;;;;;;4.53;4.43;;;63.80;22.30;;;;;;5014510;28;20537;-74
2022/05/18 10:24:59;;;;;;;4.03;3.93;;;63.90;22.40;;;;;;5014497;28;20395;-74
2022/05/18 10:27:29;;;;;;;5.90;5.70;;;64.10;22.20;;;;;;5014102;28;20438;-74
2022/05/18 10:30:08;;;;;;;4.40;4.30;;;64.30;22.00;;;;;;5014241;28;20477;-74
2022/05/18 10:32:35;;;;;;;5.20;5.00;;;64.40;21.50;;;;;;5014322;28;20807;-74
2022/05/18 10:35:01;;;;;;;5.60;5.40;;;64.60;21.70;;;;;;5014176;28;20498;-74
2022/05/18 10:37:30;;;;;;;5.80;5.60;;;64.70;21.70;;;;;;5013977;28;20771;-74
2022/05/18 10:39:59;;;;;;;4.97;4.88;;;65.10;21.90;;;;;;5012845;28;20533;-74
2022/05/18 10:42:52;;;;;;;4.95;4.85;;;65.40;21.90;;;;;;5011865;28;20639;-74
2022/05/18 10:45:26;;;;;;;5.10;5.00;;;65.80;21.70;;;;;;5003378;28;20425;-74
2022/05/18 10:48:02;;;;;;;5.90;5.70;;;66.10;21.50;;;;;;5013705;28;20163;-74
2022/05/18 10:50:36;;;;;;;6.07;5.88;;;66.20;21.20;;;;;;5013974;28;20664;-74
2022/05/18 10:53:27;;;;;;;5.85;5.65;;;66.20;21.00;;;;;;5012695;28;20654;-74
2022/05/18 10:55:55;;;;;;;5.72;5.53;;;66.10;20.90;;;;;;5013692;28;20163;-74
2022/05/18 10:58:30;;;;;;;5.97;5.70;;;66.10;20.80;;;;;;5013492;28;20247;-74
2022/05/18 11:01:23;;;;;;;5.47;5.28;;;66.20;20.70;;;;;;5013887;28;20286;-74
2022/05/18 11:03:58;;;;;;;5.72;5.53;;;66.40;20.80;;;;;;5013602;28;20217;-74
2022/05/18 11:06:39;;;;;;;5.45;5.35;;;66.70;20.60;;;;;;5012396;28;20658;-74
2022/05/18 11:09:21;;;;;;;5.88;5.68;;;66.80;20.30;;;;;;5012370;28;20183;-74
2022/05/18 11:12:08;;;;;;;6.13;5.93;;;66.80;20.10;;;;;;5013808;28;20178;-74
2022/05/18 11:14:43;;;;;;;6.22;6.03;;;66.90;20.10;;;;;;5013531;28;20653;-75
2022/05/18 11:17:38;;;;;;;5.90;5.70;;;67.10;20.40;;;;;;5013177;28;20165;-74
2022/05/18 11:20:32;;;;;;;6.00;5.80;;;66.90;20.10;;;;;;5012230;28;20295;-74
2022/05/18 11:23:27;;;;;;;5.90;5.70;;;66.80;19.90;;;;;;5013396;28;20226;-74
2022/05/18 11:26:05;;;;;;;5.90;5.70;;;66.70;19.90;;;;;;5013305;28;20504;-74
2022/05/18 11:28:49;;;;;;;6.05;5.85;;;66.70;20.10;;;;;;5011843;28;20196;-74
2022/05/18 11:31:21;;;;;;;5.75;5.55;;;66.90;20.30;;;;;;5013264;28;20238;-74
2022/05/18 11:34:01;;;;;;;6.50;6.30;;;67.20;20.20;;;;;;5013160;28;20656;-74
2022/05/18 11:37:11;;;;;;;6.50;6.30;;;67.40;20.00;;;;;;5011704;28;20539;-74
2022/05/18 11:40:15;;;;;;;6.82;6.63;;;67.20;19.70;;;;;;5013043;28;20195;-74
2022/05/18 11:43:00;;;;;;;6.88;6.68;;;67.10;19.90;;;;;;4994620;28;20210;-74
2022/05/18 11:45:35;;;;;;;6.15;5.95;;;66.90;19.40;;;;;;5012964;28;20222;-74
2022/05/18 11:48:35;;;;;;;6.20;6.00;;;66.70;19.50;;;;;;5012809;28;20163;-74
2022/05/18 11:51:18;;;;;;;6.20;6.00;;;66.40;19.60;;;;;;5013005;28;20266;-74
2022/05/18 11:53:50;;;;;;;6.80;6.60;;;66.50;19.90;;;;;;5012563;28;20305;-74
2022/05/18 11:56:39;;;;;;;6.15;5.95;;;66.20;19.30;;;;;;5012593;28;20171;-74
2022/05/18 12:02:32;;;;;;;5.88;5.68;;;65.40;19.30;;;;;;5012889;28;20258;-74
2022/05/18 12:05:12;;;;;;;5.20;5.00;;;65.00;19.50;;;;;;5012614;28;20164;-74
2022/05/18 12:08:26;;;;;;;4.93;4.78;;;64.90;19.60;;;;;;5011045;28;20175;-74
2022/05/18 12:11:04;;;;;;;4.80;4.70;;;64.90;19.80;;;;;;5012655;28;20175;-74
2022/05/18 12:13:57;;;;;;;4.10;4.00;;;64.40;19.30;;;;;;5012542;28;20414;-73
2022/05/18 12:16:54;;;;;;;4.23;4.13;;;63.50;19.50;;;;;;5012403;28;20411;-74
2022/05/18 12:19:22;;;;;;;4.43;4.30;;;63.20;19.70;;;;;;5012343;28;20435;-73
2022/05/18 12:22:03;;;;;;;4.27;4.17;;;63.10;19.90;;;;;;5012426;28;20435;-73
2022/05/18 12:24:29;;;;;;;4.10;4.00;;;63.30;20.10;;;;;;5012353;28;20834;-74
2022/05/18 12:26:55;;;;;;;4.53;4.33;;;63.30;20.10;;;;;;5012128;28;20401;-74
2022/05/18 12:29:24;;;;;;;4.27;4.17;;;63.40;20.20;;;;;;5012345;28;20427;-74
2022/05/18 12:31:53;;;;;;;3.97;3.87;;;63.40;20.10;;;;;;5012431;28;20394;-74
2022/05/18 12:34:24;;;;;;;4.30;4.20;;;63.40;20.10;;;;;;5012207;28;20406;-74
2022/05/18 12:37:02;;;;;;;4.80;4.70;;;63.10;19.60;;;;;;5012110;28;20395;-73
2022/05/18 12:39:33;;;;;;;4.30;4.13;;;63.10;19.90;;;;;;5012124;28;20761;-73
2022/05/18 12:42:00;;;;;;;3.40;3.30;;;63.00;19.60;;;;;;5012158;28;20436;-74
2022/05/18 12:44:37;;;;;;;4.00;3.90;;;62.80;19.80;;;;;;5012102;28;20900;-73
2022/05/18 12:47:24;;;;;;;3.80;3.70;;;62.70;20.10;;;;;;5012001;28;20764;-74
2022/05/18 12:49:56;;;;;;;4.07;3.97;;;62.40;20.10;;;;;;5010866;28;20442;-74
2022/05/18 12:52:34;;;;;;;3.40;3.30;;;62.10;20.00;;;;;;5012178;28;20800;-74
2022/05/18 12:55:15;;;;;;;3.40;3.30;;;61.70;20.00;;;;;;5010732;28;20529;-74
2022/05/18 12:57:40;;;;;;;3.47;3.37;;;61.40;20.10;;;;;;5011905;28;20797;-74
2022/05/18 13:00:24;;;;;;;3.30;3.20;;;61.00;20.00;;;;;;5011874;28;20540;-74
2022/05/18 13:03:08;;;;;;;2.90;2.80;;;60.80;20.20;;;;;;5011907;28;20195;-75
2022/05/18 13:05:40;;;;;;;3.63;3.43;;;60.80;20.40;;;;;;5013961;28;20410;-74
2022/05/18 13:08:15;;;;;;;3.43;3.33;;;60.40;20.10;;;;;;5015646;28;20413;-73
2022/05/18 13:11:01;;;;;;;2.80;2.70;;;60.50;20.50;;;;;;5015747;28;20394;-73
2022/05/18 13:13:26;;;;;;;3.30;3.20;;;60.30;20.40;;;;;;5015737;28;20823;-74
2022/05/18 13:15:59;;;;;;;2.80;2.70;;;60.10;20.30;;;;;;5015488;28;20413;-73
2022/05/18 13:18:34;;;;;;;2.80;2.70;;;59.80;20.60;;;;;;5015583;28;20183;-73
2022/05/18 13:21:08;;;;;;;2.70;2.60;;;58.80;20.50;;;;;;5015857;28;20431;-73
2022/05/18 13:24:02;;;;;;;2.50;2.40;;;57.40;20.70;;;;;;5015420;28;20501;-73
2022/05/18 13:26:39;;;;;;;2.10;2.00;;;56.10;21.10;;;;;;5014847;28;20422;-73
2022/05/18 13:29:31;;;;;;;3.00;2.90;;;54.40;21.40;;;;;;5015516;28;20826;-73
2022/05/18 13:32:01;;;;;;;2.10;2.00;;;53.10;22.00;;;;;;5014997;28;20407;-73
2022/05/18 13:34:37;;;;;;;1.67;1.57;;;51.90;22.60;;;;;;5015468;28;20841;-74